Terminal Aerodrome Forecast
Issued by NWS

Home | Current Version | Previous Version | Text Only | Print | Product List | Glossary Off
Versions: 1 2 3 4 5 6 7 8 9 10 11 12

000
FTUS43 KICT 190520
TAFRSL
TAF
KRSL 190520Z 1906/2006 17010KT P6SM SCT070 BKN250
     FM191400 20015G22KT P6SM SKC
     FM191800 23018G28KT P6SM SKC
     FM200100 17010KT P6SM SCT070 BKN250=

USA.gov is the U.S. government's official web portal to all federal, state and local government web resources and services.